sensor_id;sensor_type;location;lat;lon;timestamp;temperature;humidity
77727;SHT30;68312;53.502;10.030;2023-05-07T00:01:17;8.77;87.22
77727;SHT30;68312;53.502;10.030;2023-05-07T00:03:42;8.74;87.21
77727;SHT30;68312;53.502;10.030;2023-05-07T00:06:08;8.73;86.90
77727;SHT30;68312;53.502;10.030;2023-05-07T00:08:33;8.72;87.26
77727;SHT30;68312;53.502;10.030;2023-05-07T00:10:59;8.69;87.68
77727;SHT30;68312;53.502;10.030;2023-05-07T00:13:24;8.66;87.78
77727;SHT30;68312;53.502;10.030;2023-05-07T00:15:50;8.80;86.22
77727;SHT30;68312;53.502;10.030;2023-05-07T00:18:15;8.76;86.28
77727;SHT30;68312;53.502;10.030;2023-05-07T00:20:41;8.77;86.32
77727;SHT30;68312;53.502;10.030;2023-05-07T00:23:06;8.81;85.34
77727;SHT30;68312;53.502;10.030;2023-05-07T00:25:32;8.74;85.47
77727;SHT30;68312;53.502;10.030;2023-05-07T00:27:57;8.79;85.87
77727;SHT30;68312;53.502;10.030;2023-05-07T00:30:23;8.77;85.67
77727;SHT30;68312;53.502;10.030;2023-05-07T00:32:48;8.76;85.52
77727;SHT30;68312;53.502;10.030;2023-05-07T00:35:16;8.72;85.51
77727;SHT30;68312;53.502;10.030;2023-05-07T00:37:42;8.80;85.17
77727;SHT30;68312;53.502;10.030;2023-05-07T00:40:10;8.77;85.65
77727;SHT30;68312;53.502;10.030;2023-05-07T00:42:36;8.73;85.84
77727;SHT30;68312;53.502;10.030;2023-05-07T00:45:03;8.76;85.95
77727;SHT30;68312;53.502;10.030;2023-05-07T00:47:29;8.79;85.25
77727;SHT30;68312;53.502;10.030;2023-05-07T00:49:57;8.80;85.24
77727;SHT30;68312;53.502;10.030;2023-05-07T00:52:26;8.77;85.00
77727;SHT30;68312;53.502;10.030;2023-05-07T00:54:53;8.93;83.96
77727;SHT30;68312;53.502;10.030;2023-05-07T00:57:21;8.83;84.92
77727;SHT30;68312;53.502;10.030;2023-05-07T00:59:51;8.80;85.08
77727;SHT30;68312;53.502;10.030;2023-05-07T01:02:17;8.87;84.82
77727;SHT30;68312;53.502;10.030;2023-05-07T01:04:42;8.80;85.09
77727;SHT30;68312;53.502;10.030;2023-05-07T01:07:08;8.77;85.22
77727;SHT30;68312;53.502;10.030;2023-05-07T01:09:38;8.85;85.12
77727;SHT30;68312;53.502;10.030;2023-05-07T01:12:06;8.79;85.39
77727;SHT30;68312;53.502;10.030;2023-05-07T01:14:33;8.79;85.70
77727;SHT30;68312;53.502;10.030;2023-05-07T01:16:59;8.79;85.65
77727;SHT30;68312;53.502;10.030;2023-05-07T01:19:28;8.91;84.88
77727;SHT30;68312;53.502;10.030;2023-05-07T01:22:09;8.85;84.48
77727;SHT30;68312;53.502;10.030;2023-05-07T01:24:37;9.00;83.51
77727;SHT30;68312;53.502;10.030;2023-05-07T01:27:04;8.91;83.69
77727;SHT30;68312;53.502;10.030;2023-05-07T01:29:29;8.85;83.88
77727;SHT30;68312;53.502;10.030;2023-05-07T01:32:00;8.90;84.06
77727;SHT30;68312;53.502;10.030;2023-05-07T01:34:32;8.88;84.04
77727;SHT30;68312;53.502;10.030;2023-05-07T01:37:00;9.00;82.64
77727;SHT30;68312;53.502;10.030;2023-05-07T01:39:30;8.97;82.82
77727;SHT30;68312;53.502;10.030;2023-05-07T01:41:56;8.97;82.59
77727;SHT30;68312;53.502;10.030;2023-05-07T01:44:22;9.05;81.87
77727;SHT30;68312;53.502;10.030;2023-05-07T01:46:49;9.04;82.02
77727;SHT30;68312;53.502;10.030;2023-05-07T01:49:16;8.94;82.26
77727;SHT30;68312;53.502;10.030;2023-05-07T01:51:42;8.97;81.68
77727;SHT30;68312;53.502;10.030;2023-05-07T01:54:08;8.93;81.91
77727;SHT30;68312;53.502;10.030;2023-05-07T01:56:34;9.03;81.74
77727;SHT30;68312;53.502;10.030;2023-05-07T01:59:00;9.05;81.84
77727;SHT30;68312;53.502;10.030;2023-05-07T02:01:28;8.96;82.03
77727;SHT30;68312;53.502;10.030;2023-05-07T02:03:54;8.94;82.17
77727;SHT30;68312;53.502;10.030;2023-05-07T02:06:19;8.91;82.78
77727;SHT30;68312;53.502;10.030;2023-05-07T02:08:45;8.87;83.16
77727;SHT30;68312;53.502;10.030;2023-05-07T02:11:11;8.83;83.46
77727;SHT30;68312;53.502;10.030;2023-05-07T02:13:41;8.93;82.92
77727;SHT30;68312;53.502;10.030;2023-05-07T02:16:06;8.87;83.38
77727;SHT30;68312;53.502;10.030;2023-05-07T02:18:32;8.94;83.13
77727;SHT30;68312;53.502;10.030;2023-05-07T02:20:57;8.93;83.35
77727;SHT30;68312;53.502;10.030;2023-05-07T02:23:23;8.87;83.72
77727;SHT30;68312;53.502;10.030;2023-05-07T02:25:48;8.84;84.12
77727;SHT30;68312;53.502;10.030;2023-05-07T02:28:14;8.83;84.36
77727;SHT30;68312;53.502;10.030;2023-05-07T02:30:39;8.79;84.81
77727;SHT30;68312;53.502;10.030;2023-05-07T02:33:05;8.79;84.70
77727;SHT30;68312;53.502;10.030;2023-05-07T02:35:31;8.81;84.57
77727;SHT30;68312;53.502;10.030;2023-05-07T02:37:56;8.80;84.79
77727;SHT30;68312;53.502;10.030;2023-05-07T02:40:24;8.79;85.02
77727;SHT30;68312;53.502;10.030;2023-05-07T02:42:50;8.80;84.93
77727;SHT30;68312;53.502;10.030;2023-05-07T02:45:16;8.83;85.11
77727;SHT30;68312;53.502;10.030;2023-05-07T02:47:41;8.83;85.35
77727;SHT30;68312;53.502;10.030;2023-05-07T02:50:07;8.85;85.73
77727;SHT30;68312;53.502;10.030;2023-05-07T02:52:33;8.91;85.55
77727;SHT30;68312;53.502;10.030;2023-05-07T02:54:58;8.87;85.80
77727;SHT30;68312;53.502;10.030;2023-05-07T02:57:24;8.85;85.92
77727;SHT30;68312;53.502;10.030;2023-05-07T02:59:49;8.80;86.23
77727;SHT30;68312;53.502;10.030;2023-05-07T03:02:15;8.81;86.40
77727;SHT30;68312;53.502;10.030;2023-05-07T03:04:40;8.88;86.00
77727;SHT30;68312;53.502;10.030;2023-05-07T03:07:06;8.87;86.06
77727;SHT30;68312;53.502;10.030;2023-05-07T03:09:31;8.80;86.30
77727;SHT30;68312;53.502;10.030;2023-05-07T03:11:57;8.80;86.51
77727;SHT30;68312;53.502;10.030;2023-05-07T03:14:25;8.77;86.93
77727;SHT30;68312;53.502;10.030;2023-05-07T03:16:50;8.79;86.93
77727;SHT30;68312;53.502;10.030;2023-05-07T03:19:16;8.77;86.83
77727;SHT30;68312;53.502;10.030;2023-05-07T03:21:41;8.70;87.33
77727;SHT30;68312;53.502;10.030;2023-05-07T03:24:07;8.72;87.58
77727;SHT30;68312;53.502;10.030;2023-05-07T03:26:32;8.74;87.56
77727;SHT30;68312;53.502;10.030;2023-05-07T03:28:58;8.69;87.46
77727;SHT30;68312;53.502;10.030;2023-05-07T03:31:24;8.72;87.52
77727;SHT30;68312;53.502;10.030;2023-05-07T03:33:52;8.74;86.80
77727;SHT30;68312;53.502;10.030;2023-05-07T03:36:19;8.72;86.89
77727;SHT30;68312;53.502;10.030;2023-05-07T03:38:44;8.73;87.09
77727;SHT30;68312;53.502;10.030;2023-05-07T03:41:10;8.77;86.65
77727;SHT30;68312;53.502;10.030;2023-05-07T03:43:35;8.73;86.82
77727;SHT30;68312;53.502;10.030;2023-05-07T03:46:01;8.73;87.09
77727;SHT30;68312;53.502;10.030;2023-05-07T03:48:26;8.69;87.14
77727;SHT30;68312;53.502;10.030;2023-05-07T03:50:52;8.74;86.57
77727;SHT30;68312;53.502;10.030;2023-05-07T03:53:17;8.72;85.85
77727;SHT30;68312;53.502;10.030;2023-05-07T03:55:43;8.77;85.24
77727;SHT30;68312;53.502;10.030;2023-05-07T03:58:08;8.83;85.57
77727;SHT30;68312;53.502;10.030;2023-05-07T04:00:34;8.80;85.43
77727;SHT30;68312;53.502;10.030;2023-05-07T04:02:59;8.77;84.79
77727;SHT30;68312;53.502;10.030;2023-05-07T04:05:25;8.79;85.27
77727;SHT30;68312;53.502;10.030;2023-05-07T04:07:50;8.83;84.53
77727;SHT30;68312;53.502;10.030;2023-05-07T04:10:16;8.79;84.58
77727;SHT30;68312;53.502;10.030;2023-05-07T04:12:41;8.84;83.90
77727;SHT30;68312;53.502;10.030;2023-05-07T04:15:07;8.85;83.66
77727;SHT30;68312;53.502;10.030;2023-05-07T04:17:33;8.90;83.61
77727;SHT30;68312;53.502;10.030;2023-05-07T04:19:58;8.90;83.39
77727;SHT30;68312;53.502;10.030;2023-05-07T04:22:24;8.88;83.73
77727;SHT30;68312;53.502;10.030;2023-05-07T04:24:49;8.88;83.43
77727;SHT30;68312;53.502;10.030;2023-05-07T04:27:15;8.99;83.28
77727;SHT30;68312;53.502;10.030;2023-05-07T04:29:40;8.99;83.39
77727;SHT30;68312;53.502;10.030;2023-05-07T04:32:05;8.96;83.69
77727;SHT30;68312;53.502;10.030;2023-05-07T04:34:31;8.93;83.86
77727;SHT30;68312;53.502;10.030;2023-05-07T04:36:58;8.96;84.01
77727;SHT30;68312;53.502;10.030;2023-05-07T04:39:24;8.99;83.90
77727;SHT30;68312;53.502;10.030;2023-05-07T04:41:55;9.03;84.09
77727;SHT30;68312;53.502;10.030;2023-05-07T04:44:21;9.08;84.02
77727;SHT30;68312;53.502;10.030;2023-05-07T04:46:46;9.08;83.11
77727;SHT30;68312;53.502;10.030;2023-05-07T04:49:12;9.14;83.31
77727;SHT30;68312;53.502;10.030;2023-05-07T04:51:37;9.11;83.33
77727;SHT30;68312;53.502;10.030;2023-05-07T04:54:03;9.11;83.13
77727;SHT30;68312;53.502;10.030;2023-05-07T04:56:29;9.21;82.12
77727;SHT30;68312;53.502;10.030;2023-05-07T04:58:54;9.15;82.74
77727;SHT30;68312;53.502;10.030;2023-05-07T05:01:20;9.25;81.67
77727;SHT30;68312;53.502;10.030;2023-05-07T05:03:45;9.20;81.55
77727;SHT30;68312;53.502;10.030;2023-05-07T05:06:11;9.20;82.20
77727;SHT30;68312;53.502;10.030;2023-05-07T05:08:36;9.25;82.22
77727;SHT30;68312;53.502;10.030;2023-05-07T05:11:02;9.36;81.74
77727;SHT30;68312;53.502;10.030;2023-05-07T05:13:28;9.36;81.07
77727;SHT30;68312;53.502;10.030;2023-05-07T05:15:54;9.35;81.67
77727;SHT30;68312;53.502;10.030;2023-05-07T05:18:19;9.35;81.67
77727;SHT30;68312;53.502;10.030;2023-05-07T05:20:45;9.45;81.41
77727;SHT30;68312;53.502;10.030;2023-05-07T05:23:11;9.38;81.42
77727;SHT30;68312;53.502;10.030;2023-05-07T05:25:36;9.35;81.62
77727;SHT30;68312;53.502;10.030;2023-05-07T05:28:02;9.38;80.94
77727;SHT30;68312;53.502;10.030;2023-05-07T05:30:27;9.42;80.90
77727;SHT30;68312;53.502;10.030;2023-05-07T05:32:53;9.30;81.77
77727;SHT30;68312;53.502;10.030;2023-05-07T05:35:18;9.34;81.31
77727;SHT30;68312;53.502;10.030;2023-05-07T05:37:44;9.30;81.91
77727;SHT30;68312;53.502;10.030;2023-05-07T05:40:10;9.28;81.67
77727;SHT30;68312;53.502;10.030;2023-05-07T05:42:36;9.27;81.96
77727;SHT30;68312;53.502;10.030;2023-05-07T05:45:05;9.32;82.12
77727;SHT30;68312;53.502;10.030;2023-05-07T05:47:30;9.38;81.85
77727;SHT30;68312;53.502;10.030;2023-05-07T05:49:59;9.36;81.60
77727;SHT30;68312;53.502;10.030;2023-05-07T05:52:24;9.38;81.30
77727;SHT30;68312;53.502;10.030;2023-05-07T05:54:50;9.41;81.66
77727;SHT30;68312;53.502;10.030;2023-05-07T05:57:15;9.42;81.82
77727;SHT30;68312;53.502;10.030;2023-05-07T05:59:41;9.51;81.46
77727;SHT30;68312;53.502;10.030;2023-05-07T06:02:07;9.53;80.73
77727;SHT30;68312;53.502;10.030;2023-05-07T06:04:33;9.55;80.25
77727;SHT30;68312;53.502;10.030;2023-05-07T06:06:58;9.52;80.37
77727;SHT30;68312;53.502;10.030;2023-05-07T06:09:26;9.58;80.86
77727;SHT30;68312;53.502;10.030;2023-05-07T06:11:52;9.66;79.87
77727;SHT30;68312;53.502;10.030;2023-05-07T06:14:17;9.63;80.25
77727;SHT30;68312;53.502;10.030;2023-05-07T06:16:43;9.66;80.63
77727;SHT30;68312;53.502;10.030;2023-05-07T06:19:09;9.68;80.63
77727;SHT30;68312;53.502;10.030;2023-05-07T06:21:34;9.69;80.08
77727;SHT30;68312;53.502;10.030;2023-05-07T06:24:00;9.76;80.13
77727;SHT30;68312;53.502;10.030;2023-05-07T06:26:25;9.79;79.69
77727;SHT30;68312;53.502;10.030;2023-05-07T06:28:51;9.78;80.03
77727;SHT30;68312;53.502;10.030;2023-05-07T06:31:19;9.89;79.76
77727;SHT30;68312;53.502;10.030;2023-05-07T06:33:45;9.90;79.31
77727;SHT30;68312;53.502;10.030;2023-05-07T06:36:10;9.89;80.07
77727;SHT30;68312;53.502;10.030;2023-05-07T06:38:36;9.87;80.00
77727;SHT30;68312;53.502;10.030;2023-05-07T06:41:01;9.87;79.53
77727;SHT30;68312;53.502;10.030;2023-05-07T06:43:27;9.89;79.47
77727;SHT30;68312;53.502;10.030;2023-05-07T06:45:52;9.89;79.43
77727;SHT30;68312;53.502;10.030;2023-05-07T06:48:18;9.82;80.22
77727;SHT30;68312;53.502;10.030;2023-05-07T06:50:43;9.93;80.42
77727;SHT30;68312;53.502;10.030;2023-05-07T06:53:09;9.89;80.11
77727;SHT30;68312;53.502;10.030;2023-05-07T06:55:34;9.92;80.95
77727;SHT30;68312;53.502;10.030;2023-05-07T06:58:02;9.99;80.38
77727;SHT30;68312;53.502;10.030;2023-05-07T07:00:31;10.13;80.12
77727;SHT30;68312;53.502;10.030;2023-05-07T07:02:57;10.20;78.97
77727;SHT30;68312;53.502;10.030;2023-05-07T07:05:25;10.17;79.35
77727;SHT30;68312;53.502;10.030;2023-05-07T07:07:51;10.16;79.36
77727;SHT30;68312;53.502;10.030;2023-05-07T07:10:16;10.18;79.61
77727;SHT30;68312;53.502;10.030;2023-05-07T07:12:42;10.27;78.48
77727;SHT30;68312;53.502;10.030;2023-05-07T07:15:07;10.30;78.78
77727;SHT30;68312;53.502;10.030;2023-05-07T07:17:33;10.37;78.92
77727;SHT30;68312;53.502;10.030;2023-05-07T07:19:59;10.40;77.92
77727;SHT30;68312;53.502;10.030;2023-05-07T07:22:24;10.44;78.06
77727;SHT30;68312;53.502;10.030;2023-05-07T07:24:50;10.58;78.71
77727;SHT30;68312;53.502;10.030;2023-05-07T07:27:15;10.55;76.75
77727;SHT30;68312;53.502;10.030;2023-05-07T07:29:41;10.58;77.32
77727;SHT30;68312;53.502;10.030;2023-05-07T07:32:06;10.64;77.27
77727;SHT30;68312;53.502;10.030;2023-05-07T07:34:32;10.62;77.31
77727;SHT30;68312;53.502;10.030;2023-05-07T07:36:57;10.68;77.11
77727;SHT30;68312;53.502;10.030;2023-05-07T07:39:23;10.69;76.92
77727;SHT30;68312;53.502;10.030;2023-05-07T07:41:48;10.68;76.86
77727;SHT30;68312;53.502;10.030;2023-05-07T07:44:14;10.75;77.51
77727;SHT30;68312;53.502;10.030;2023-05-07T07:46:39;10.72;77.07
77727;SHT30;68312;53.502;10.030;2023-05-07T07:49:05;10.88;76.49
77727;SHT30;68312;53.502;10.030;2023-05-07T07:51:30;10.98;77.22
77727;SHT30;68312;53.502;10.030;2023-05-07T07:53:56;10.99;76.05
77727;SHT30;68312;53.502;10.030;2023-05-07T07:56:22;10.98;75.94
77727;SHT30;68312;53.502;10.030;2023-05-07T07:58:47;11.03;76.07
77727;SHT30;68312;53.502;10.030;2023-05-07T08:01:13;11.02;76.71
77727;SHT30;68312;53.502;10.030;2023-05-07T08:03:38;11.15;76.47
77727;SHT30;68312;53.502;10.030;2023-05-07T08:06:04;11.20;75.62
77727;SHT30;68312;53.502;10.030;2023-05-07T08:08:29;11.16;75.09
77727;SHT30;68312;53.502;10.030;2023-05-07T08:10:55;11.22;75.76
77727;SHT30;68312;53.502;10.030;2023-05-07T08:13:20;11.26;74.93
77727;SHT30;68312;53.502;10.030;2023-05-07T08:15:46;11.12;74.96
77727;SHT30;68312;53.502;10.030;2023-05-07T08:18:11;11.05;74.55
77727;SHT30;68312;53.502;10.030;2023-05-07T08:20:37;11.08;75.15
77727;SHT30;68312;53.502;10.030;2023-05-07T08:23:05;11.03;74.57
77727;SHT30;68312;53.502;10.030;2023-05-07T08:25:33;11.00;75.15
77727;SHT30;68312;53.502;10.030;2023-05-07T08:27:59;11.00;74.98
77727;SHT30;68312;53.502;10.030;2023-05-07T08:30:27;11.10;74.25
77727;SHT30;68312;53.502;10.030;2023-05-07T08:32:53;11.18;74.90
77727;SHT30;68312;53.502;10.030;2023-05-07T08:35:18;11.18;73.77
77727;SHT30;68312;53.502;10.030;2023-05-07T08:37:44;11.18;75.31
77727;SHT30;68312;53.502;10.030;2023-05-07T08:40:10;11.24;74.36
77727;SHT30;68312;53.502;10.030;2023-05-07T08:42:36;11.24;74.38
77727;SHT30;68312;53.502;10.030;2023-05-07T08:45:09;11.27;74.99
77727;SHT30;68312;53.502;10.030;2023-05-07T08:47:43;11.33;75.13
77727;SHT30;68312;53.502;10.030;2023-05-07T08:50:11;11.47;74.04
77727;SHT30;68312;53.502;10.030;2023-05-07T08:52:37;11.58;73.92
77727;SHT30;68312;53.502;10.030;2023-05-07T08:55:04;11.70;72.67
77727;SHT30;68312;53.502;10.030;2023-05-07T08:57:31;11.82;74.15
77727;SHT30;68312;53.502;10.030;2023-05-07T08:59:57;11.82;73.70
77727;SHT30;68312;53.502;10.030;2023-05-07T09:02:22;11.74;73.39
77727;SHT30;68312;53.502;10.030;2023-05-07T09:04:48;11.56;73.68
77727;SHT30;68312;53.502;10.030;2023-05-07T09:07:13;11.56;73.94
77727;SHT30;68312;53.502;10.030;2023-05-07T09:09:39;11.64;73.18
77727;SHT30;68312;53.502;10.030;2023-05-07T09:12:05;11.74;73.72
77727;SHT30;68312;53.502;10.030;2023-05-07T09:14:30;11.95;73.48
77727;SHT30;68312;53.502;10.030;2023-05-07T09:16:56;12.05;72.29
77727;SHT30;68312;53.502;10.030;2023-05-07T09:19:26;12.18;72.20
77727;SHT30;68312;53.502;10.030;2023-05-07T09:22:03;12.12;71.64
77727;SHT30;68312;53.502;10.030;2023-05-07T09:24:31;12.11;71.45
77727;SHT30;68312;53.502;10.030;2023-05-07T09:26:59;12.12;71.90
77727;SHT30;68312;53.502;10.030;2023-05-07T09:29:25;12.12;71.59
77727;SHT30;68312;53.502;10.030;2023-05-07T09:31:50;12.25;72.22
77727;SHT30;68312;53.502;10.030;2023-05-07T09:34:16;12.26;70.87
77727;SHT30;68312;53.502;10.030;2023-05-07T09:36:41;12.32;72.14
77727;SHT30;68312;53.502;10.030;2023-05-07T09:39:07;12.43;71.06
77727;SHT30;68312;53.502;10.030;2023-05-07T09:41:33;12.40;71.04
77727;SHT30;68312;53.502;10.030;2023-05-07T09:44:09;12.33;70.74
77727;SHT30;68312;53.502;10.030;2023-05-07T09:46:38;12.25;70.93
77727;SHT30;68312;53.502;10.030;2023-05-07T09:49:21;12.28;71.93
77727;SHT30;68312;53.502;10.030;2023-05-07T09:51:52;12.12;71.48
77727;SHT30;68312;53.502;10.030;2023-05-07T09:54:18;12.11;72.37
77727;SHT30;68312;53.502;10.030;2023-05-07T09:56:48;12.05;72.32
77727;SHT30;68312;53.502;10.030;2023-05-07T09:59:15;12.04;72.51
77727;SHT30;68312;53.502;10.030;2023-05-07T10:01:43;12.11;71.34
77727;SHT30;68312;53.502;10.030;2023-05-07T10:04:10;12.08;71.69
77727;SHT30;68312;53.502;10.030;2023-05-07T10:06:38;12.14;72.41
77727;SHT30;68312;53.502;10.030;2023-05-07T10:09:04;12.01;72.78
77727;SHT30;68312;53.502;10.030;2023-05-07T10:11:35;12.01;73.20
77727;SHT30;68312;53.502;10.030;2023-05-07T10:14:05;12.11;70.99
77727;SHT30;68312;53.502;10.030;2023-05-07T10:16:32;12.16;71.70
77727;SHT30;68312;53.502;10.030;2023-05-07T10:19:05;12.25;71.09
77727;SHT30;68312;53.502;10.030;2023-05-07T10:21:36;12.32;71.52
77727;SHT30;68312;53.502;10.030;2023-05-07T10:24:36;12.36;71.48
77727;SHT30;68312;53.502;10.030;2023-05-07T10:27:07;12.28;71.02
77727;SHT30;68312;53.502;10.030;2023-05-07T10:29:55;12.18;71.85
77727;SHT30;68312;53.502;10.030;2023-05-07T10:32:49;12.36;71.33
77727;SHT30;68312;53.502;10.030;2023-05-07T10:35:22;12.39;71.06
77727;SHT30;68312;53.502;10.030;2023-05-07T10:37:51;12.32;70.76
77727;SHT30;68312;53.502;10.030;2023-05-07T10:40:17;12.43;71.01
77727;SHT30;68312;53.502;10.030;2023-05-07T10:43:05;12.52;70.63
77727;SHT30;68312;53.502;10.030;2023-05-07T10:45:34;12.55;71.02
77727;SHT30;68312;53.502;10.030;2023-05-07T10:48:14;12.57;70.17
77727;SHT30;68312;53.502;10.030;2023-05-07T10:50:45;12.66;70.58
77727;SHT30;68312;53.502;10.030;2023-05-07T10:55:52;13.28;69.29
77727;SHT30;68312;53.502;10.030;2023-05-07T10:58:49;13.55;67.19
77727;SHT30;68312;53.502;10.030;2023-05-07T11:01:14;13.56;67.55
77727;SHT30;68312;53.502;10.030;2023-05-07T11:04:15;13.67;66.85
77727;SHT30;68312;53.502;10.030;2023-05-07T11:06:41;13.66;66.95
77727;SHT30;68312;53.502;10.030;2023-05-07T11:09:07;13.52;67.59
77727;SHT30;68312;53.502;10.030;2023-05-07T11:11:49;13.90;67.48
77727;SHT30;68312;53.502;10.030;2023-05-07T11:17:07;14.32;65.60
77727;SHT30;68312;53.502;10.030;2023-05-07T11:19:52;14.45;64.64
77727;SHT30;68312;53.502;10.030;2023-05-07T11:22:36;14.48;63.98
77727;SHT30;68312;53.502;10.030;2023-05-07T11:25:03;14.58;64.80
77727;SHT30;68312;53.502;10.030;2023-05-07T11:27:29;14.57;64.16
77727;SHT30;68312;53.502;10.030;2023-05-07T11:29:55;14.78;63.33
77727;SHT30;68312;53.502;10.030;2023-05-07T11:32:31;15.03;62.13
77727;SHT30;68312;53.502;10.030;2023-05-07T11:34:59;14.92;61.80
77727;SHT30;68312;53.502;10.030;2023-05-07T11:37:27;14.48;62.67
77727;SHT30;68312;53.502;10.030;2023-05-07T11:40:05;14.18;64.48
77727;SHT30;68312;53.502;10.030;2023-05-07T11:42:35;14.58;63.12
77727;SHT30;68312;53.502;10.030;2023-05-07T11:45:05;14.60;63.18
77727;SHT30;68312;53.502;10.030;2023-05-07T11:47:33;14.81;63.54
77727;SHT30;68312;53.502;10.030;2023-05-07T11:50:07;15.19;62.01
77727;SHT30;68312;53.502;10.030;2023-05-07T11:52:34;15.39;60.51
77727;SHT30;68312;53.502;10.030;2023-05-07T11:55:02;15.50;58.91
77727;SHT30;68312;53.502;10.030;2023-05-07T11:57:28;16.12;61.62
77727;SHT30;68312;53.502;10.030;2023-05-07T11:59:58;16.50;57.06
77727;SHT30;68312;53.502;10.030;2023-05-07T12:02:25;17.07;56.49
77727;SHT30;68312;53.502;10.030;2023-05-07T12:04:52;16.39;56.70
77727;SHT30;68312;53.502;10.030;2023-05-07T12:07:18;15.97;59.43
77727;SHT30;68312;53.502;10.030;2023-05-07T12:09:45;15.92;59.22
77727;SHT30;68312;53.502;10.030;2023-05-07T12:12:11;16.19;57.66
77727;SHT30;68312;53.502;10.030;2023-05-07T12:14:42;16.05;57.98
77727;SHT30;68312;53.502;10.030;2023-05-07T12:17:10;16.13;59.42
77727;SHT30;68312;53.502;10.030;2023-05-07T12:19:39;16.26;57.98
77727;SHT30;68312;53.502;10.030;2023-05-07T12:22:09;16.60;59.92
77727;SHT30;68312;53.502;10.030;2023-05-07T12:24:57;16.63;58.28
77727;SHT30;68312;53.502;10.030;2023-05-07T12:27:23;16.55;57.70
77727;SHT30;68312;53.502;10.030;2023-05-07T12:29:50;16.20;57.46
77727;SHT30;68312;53.502;10.030;2023-05-07T12:32:21;16.19;58.70
77727;SHT30;68312;53.502;10.030;2023-05-07T12:34:50;16.33;57.84
77727;SHT30;68312;53.502;10.030;2023-05-07T12:37:16;15.99;58.00
77727;SHT30;68312;53.502;10.030;2023-05-07T12:39:49;16.36;59.32
77727;SHT30;68312;53.502;10.030;2023-05-07T12:42:16;16.71;57.78
77727;SHT30;68312;53.502;10.030;2023-05-07T12:44:46;16.88;55.77
77727;SHT30;68312;53.502;10.030;2023-05-07T12:47:11;16.76;57.01
77727;SHT30;68312;53.502;10.030;2023-05-07T12:49:37;16.66;57.21
77727;SHT30;68312;53.502;10.030;2023-05-07T12:52:02;16.47;56.54
77727;SHT30;68312;53.502;10.030;2023-05-07T12:54:34;16.30;58.99
77727;SHT30;68312;53.502;10.030;2023-05-07T12:57:08;16.02;58.44
77727;SHT30;68312;53.502;10.030;2023-05-07T12:59:40;16.37;58.38
77727;SHT30;68312;53.502;10.030;2023-05-07T13:02:07;16.50;56.71
77727;SHT30;68312;53.502;10.030;2023-05-07T13:04:34;16.71;56.08
77727;SHT30;68312;53.502;10.030;2023-05-07T13:07:01;16.71;55.80
77727;SHT30;68312;53.502;10.030;2023-05-07T13:09:27;16.32;56.49
77727;SHT30;68312;53.502;10.030;2023-05-07T13:11:53;16.36;57.49
77727;SHT30;68312;53.502;10.030;2023-05-07T13:14:18;16.78;55.87
77727;SHT30;68312;53.502;10.030;2023-05-07T13:16:44;16.78;56.05
77727;SHT30;68312;53.502;10.030;2023-05-07T13:19:09;16.95;55.45
77727;SHT30;68312;53.502;10.030;2023-05-07T13:21:35;17.42;56.20
77727;SHT30;68312;53.502;10.030;2023-05-07T13:24:00;17.97;55.14
77727;SHT30;68312;53.502;10.030;2023-05-07T13:26:26;17.87;51.96
77727;SHT30;68312;53.502;10.030;2023-05-07T13:28:53;17.65;52.24
77727;SHT30;68312;53.502;10.030;2023-05-07T13:31:19;17.12;55.07
77727;SHT30;68312;53.502;10.030;2023-05-07T13:33:44;17.42;55.07
77727;SHT30;68312;53.502;10.030;2023-05-07T13:36:10;17.90;54.31
77727;SHT30;68312;53.502;10.030;2023-05-07T13:38:35;18.13;53.67
77727;SHT30;68312;53.502;10.030;2023-05-07T13:41:01;18.20;51.66
77727;SHT30;68312;53.502;10.030;2023-05-07T13:43:27;18.23;52.30
77727;SHT30;68312;53.502;10.030;2023-05-07T13:45:52;18.01;52.37
77727;SHT30;68312;53.502;10.030;2023-05-07T13:48:18;18.38;53.63
77727;SHT30;68312;53.502;10.030;2023-05-07T13:50:43;18.95;53.17
77727;SHT30;68312;53.502;10.030;2023-05-07T13:53:08;18.92;51.59
77727;SHT30;68312;53.502;10.030;2023-05-07T13:55:34;18.86;52.38
77727;SHT30;68312;53.502;10.030;2023-05-07T13:58:01;18.73;51.38
77727;SHT30;68312;53.502;10.030;2023-05-07T14:00:28;18.83;51.31
77727;SHT30;68312;53.502;10.030;2023-05-07T14:02:56;18.61;52.03
77727;SHT30;68312;53.502;10.030;2023-05-07T14:05:22;18.41;51.43
77727;SHT30;68312;53.502;10.030;2023-05-07T14:07:48;18.71;51.92
77727;SHT30;68312;53.502;10.030;2023-05-07T14:10:14;19.13;50.41
77727;SHT30;68312;53.502;10.030;2023-05-07T14:12:40;18.95;48.68
77727;SHT30;68312;53.502;10.030;2023-05-07T14:15:06;19.38;49.25
77727;SHT30;68312;53.502;10.030;2023-05-07T14:17:32;19.98;48.95
77727;SHT30;68312;53.502;10.030;2023-05-07T14:19:57;20.28;46.67
77727;SHT30;68312;53.502;10.030;2023-05-07T14:22:23;20.47;44.61
77727;SHT30;68312;53.502;10.030;2023-05-07T14:24:49;21.07;46.07
77727;SHT30;68312;53.502;10.030;2023-05-07T14:27:15;21.01;46.81
77727;SHT30;68312;53.502;10.030;2023-05-07T14:29:41;20.64;45.59
77727;SHT30;68312;53.502;10.030;2023-05-07T14:32:06;20.41;46.91
77727;SHT30;68312;53.502;10.030;2023-05-07T14:34:32;20.33;46.70
77727;SHT30;68312;53.502;10.030;2023-05-07T14:36:59;20.46;47.02
77727;SHT30;68312;53.502;10.030;2023-05-07T14:39:25;20.40;46.22
77727;SHT30;68312;53.502;10.030;2023-05-07T14:41:51;20.36;45.67
77727;SHT30;68312;53.502;10.030;2023-05-07T14:44:16;20.84;45.19
77727;SHT30;68312;53.502;10.030;2023-05-07T14:46:42;20.98;46.43
77727;SHT30;68312;53.502;10.030;2023-05-07T14:49:07;20.71;44.88
77727;SHT30;68312;53.502;10.030;2023-05-07T14:51:33;21.09;44.20
77727;SHT30;68312;53.502;10.030;2023-05-07T14:53:58;20.77;44.30
77727;SHT30;68312;53.502;10.030;2023-05-07T14:56:24;20.39;45.87
77727;SHT30;68312;53.502;10.030;2023-05-07T14:58:50;20.04;47.07
77727;SHT30;68312;53.502;10.030;2023-05-07T15:01:15;20.15;45.76
77727;SHT30;68312;53.502;10.030;2023-05-07T15:03:41;19.51;46.37
77727;SHT30;68312;53.502;10.030;2023-05-07T15:06:06;19.06;48.18
77727;SHT30;68312;53.502;10.030;2023-05-07T15:08:32;18.58;48.90
77727;SHT30;68312;53.502;10.030;2023-05-07T15:11:00;18.47;49.45
77727;SHT30;68312;53.502;10.030;2023-05-07T15:13:26;18.65;49.16
77727;SHT30;68312;53.502;10.030;2023-05-07T15:15:51;18.35;49.59
77727;SHT30;68312;53.502;10.030;2023-05-07T15:18:17;18.31;51.05
77727;SHT30;68312;53.502;10.030;2023-05-07T15:20:42;18.17;52.38
77727;SHT30;68312;53.502;10.030;2023-05-07T15:23:09;17.75;51.29
77727;SHT30;68312;53.502;10.030;2023-05-07T15:25:36;17.39;53.92
77727;SHT30;68312;53.502;10.030;2023-05-07T15:28:02;17.40;53.95